Time;durP1;ratioP1;P1;durP2;ratioP2;P2;SDS_P1;SDS_P2;PMS_P1;PMS_P2;Temp;Humidity;BMP_temperature;BMP_pressure;BME280_temperature;BME280_humidity;BME280_pressure;Samples;Min_cycle;Max_cycle;Signal;HPM_P1;HPM_P2
2022/04/15 00:01:26;;;;;;;12.68;7.88;;;;;;;;;;4955711;28;96895;-62
2022/04/15 00:03:53;;;;;;;15.45;7.75;;;;;;;;;;4956621;28;92946;-63
2022/04/15 00:06:20;;;;;;;16.35;8.13;;;;;;;;;;4956953;28;92967;-62
2022/04/15 00:08:47;;;;;;;14.25;8.43;;;;;;;;;;4955763;28;93794;-62
2022/04/15 00:11:14;;;;;;;15.95;9.82;;;;;;;;;;4965405;28;92791;-63
2022/04/15 00:13:41;;;;;;;19.60;11.15;;;;;;;;;;4962007;28;93069;-62
2022/04/15 00:16:08;;;;;;;21.38;12.40;;;;;;;;;;4956080;28;92508;-63
2022/04/15 00:18:35;;;;;;;18.23;12.35;;;;;;;;;;4957075;28;94309;-63
2022/04/15 00:21:02;;;;;;;18.17;12.60;;;;;;;;;;4956339;28;92686;-63
2022/04/15 00:23:28;;;;;;;18.38;12.52;;;;;;;;;;4956270;28;92496;-63
2022/04/15 00:25:55;;;;;;;21.08;13.60;;;;;;;;;;4955039;28;96377;-63
2022/04/15 00:28:21;;;;;;;22.05;13.30;;;;;;;;;;4954950;28;94320;-63
2022/04/15 00:30:47;;;;;;;22.63;14.15;;;;;;;;;;4955874;28;92461;-63
2022/04/15 00:33:14;;;;;;;23.30;13.23;;;;;;;;;;4958909;28;93326;-63
2022/04/15 00:35:40;;;;;;;22.25;13.45;;;;;;;;;;4955395;28;92483;-62
2022/04/15 00:38:06;;;;;;;22.48;12.88;;;;;;;;;;4955645;28;93031;-64
2022/04/15 00:40:33;;;;;;;21.63;12.90;;;;;;;;;;4955351;28;93836;-63
2022/04/15 00:42:59;;;;;;;18.50;12.75;;;;;;;;;;4955957;28;92250;-62
2022/04/15 00:45:26;;;;;;;21.23;12.82;;;;;;;;;;4955658;28;92587;-63
2022/04/15 00:47:54;;;;;;;18.42;12.77;;;;;;;;;;4955587;28;94428;-63
2022/04/15 00:50:21;;;;;;;20.00;13.40;;;;;;;;;;4954283;28;94859;-63
2022/04/15 00:52:48;;;;;;;20.20;11.60;;;;;;;;;;4958423;28;96713;-63
2022/04/15 00:55:15;;;;;;;16.85;11.90;;;;;;;;;;4955922;28;92708;-63
2022/04/15 00:57:49;;;;;;;19.90;12.30;;;;;;;;;;4955926;28;93225;-64
2022/04/15 01:00:16;;;;;;;16.80;12.10;;;;;;;;;;4954919;28;93535;-64
2022/04/15 01:02:43;;;;;;;19.17;12.15;;;;;;;;;;4955607;28;92682;-64
2022/04/15 01:05:10;;;;;;;17.63;12.05;;;;;;;;;;4955471;28;94282;-63
2022/04/15 01:07:46;;;;;;;15.27;11.82;;;;;;;;;;4955373;28;93871;-63
2022/04/15 01:10:13;;;;;;;15.93;10.95;;;;;;;;;;4955477;28;92811;-64
2022/04/15 01:12:40;;;;;;;16.38;10.63;;;;;;;;;;4955703;28;93471;-64
2022/04/15 01:15:08;;;;;;;14.75;11.13;;;;;;;;;;4956793;28;95811;-63
2022/04/15 01:17:35;;;;;;;17.08;10.68;;;;;;;;;;4953911;28;95456;-63
2022/04/15 01:20:07;;;;;;;16.95;10.40;;;;;;;;;;4954662;28;94100;-63
2022/04/15 01:22:36;;;;;;;20.90;11.48;;;;;;;;;;4954227;28;93961;-64
2022/04/15 01:25:04;;;;;;;17.13;11.18;;;;;;;;;;4955214;28;92843;-64
2022/04/15 01:27:34;;;;;;;15.90;10.13;;;;;;;;;;4954143;28;93370;-63
2022/04/15 01:30:00;;;;;;;12.90;9.65;;;;;;;;;;4955077;28;92460;-64
2022/04/15 01:32:26;;;;;;;12.35;9.75;;;;;;;;;;4956587;28;94087;-63
2022/04/15 01:34:53;;;;;;;16.25;9.23;;;;;;;;;;4955335;28;94308;-63
2022/04/15 01:37:20;;;;;;;19.70;9.70;;;;;;;;;;4958959;28;92417;-63
2022/04/15 01:39:46;;;;;;;16.65;10.38;;;;;;;;;;4953175;28;95808;-63
2022/04/15 01:42:13;;;;;;;14.63;9.77;;;;;;;;;;4955217;28;92394;-63
2022/04/15 01:44:40;;;;;;;14.25;10.20;;;;;;;;;;4946959;28;94213;-63
2022/04/15 01:47:06;;;;;;;17.10;10.35;;;;;;;;;;4955285;28;93103;-63
2022/04/15 01:49:33;;;;;;;17.35;11.60;;;;;;;;;;4954538;28;92668;-63
2022/04/15 01:51:59;;;;;;;19.23;11.25;;;;;;;;;;4955151;28;93025;-64
2022/04/15 01:54:28;;;;;;;19.98;11.13;;;;;;;;;;4953397;28;94841;-64
2022/04/15 01:56:55;;;;;;;16.40;12.30;;;;;;;;;;4952592;28;91631;-64
2022/04/15 01:59:21;;;;;;;22.17;11.45;;;;;;;;;;4957684;28;93594;-64
2022/04/15 02:01:48;;;;;;;17.05;11.57;;;;;;;;;;4954512;28;92652;-62
2022/04/15 02:04:14;;;;;;;23.13;12.00;;;;;;;;;;4951999;28;94931;-63
2022/04/15 02:06:40;;;;;;;17.88;11.25;;;;;;;;;;4953966;28;93369;-63
2022/04/15 02:09:07;;;;;;;19.75;12.10;;;;;;;;;;4956837;28;92464;-64
2022/04/15 02:11:34;;;;;;;19.52;11.93;;;;;;;;;;4954179;28;93093;-64
2022/04/15 02:14:00;;;;;;;14.98;11.80;;;;;;;;;;4950775;28;93157;-63
2022/04/15 02:16:26;;;;;;;15.88;11.80;;;;;;;;;;4954471;28;92847;-64
2022/04/15 02:18:53;;;;;;;20.73;12.35;;;;;;;;;;4953953;28;92919;-64
2022/04/15 02:21:19;;;;;;;19.65;12.25;;;;;;;;;;4958211;28;95277;-64
2022/04/15 02:23:45;;;;;;;25.85;12.32;;;;;;;;;;4954051;28;92567;-64
2022/04/15 02:26:11;;;;;;;22.15;12.90;;;;;;;;;;4954211;28;93335;-64
2022/04/15 02:28:38;;;;;;;16.42;12.07;;;;;;;;;;4953015;28;96427;-64
2022/04/15 02:31:04;;;;;;;21.42;12.23;;;;;;;;;;4953967;28;95259;-63
2022/04/15 02:33:30;;;;;;;20.58;12.70;;;;;;;;;;4953888;28;94827;-64
2022/04/15 02:35:56;;;;;;;26.77;12.98;;;;;;;;;;4954334;28;92422;-63
2022/04/15 02:38:23;;;;;;;20.60;13.07;;;;;;;;;;4954394;28;93190;-63
2022/04/15 02:40:49;;;;;;;18.52;12.68;;;;;;;;;;4953225;28;93358;-64
2022/04/15 02:43:15;;;;;;;20.40;13.10;;;;;;;;;;4957296;28;92492;-64
2022/04/15 02:45:42;;;;;;;23.30;13.02;;;;;;;;;;4941988;28;92225;-63
2022/04/15 02:48:08;;;;;;;19.65;11.88;;;;;;;;;;4953953;28;92765;-64
2022/04/15 02:50:34;;;;;;;17.92;11.13;;;;;;;;;;4954088;28;93234;-63
2022/04/15 02:53:01;;;;;;;17.05;11.27;;;;;;;;;;4951811;28;95873;-63
2022/04/15 02:55:28;;;;;;;20.85;11.23;;;;;;;;;;4950061;28;92608;-63
2022/04/15 02:57:54;;;;;;;19.15;10.63;;;;;;;;;;4952899;28;92995;-63
2022/04/15 03:00:20;;;;;;;13.35;9.13;;;;;;;;;;4953169;28;93662;-64
2022/04/15 03:02:47;;;;;;;12.63;8.10;;;;;;;;;;4957761;28;92509;-63
2022/04/15 03:05:13;;;;;;;19.42;8.15;;;;;;;;;;4954359;28;93475;-64
2022/04/15 03:07:40;;;;;;;11.43;6.47;;;;;;;;;;4953651;28;92558;-64
2022/04/15 03:10:07;;;;;;;11.35;7.03;;;;;;;;;;4955286;28;94191;-63
2022/04/15 03:12:36;;;;;;;11.30;6.95;;;;;;;;;;4957081;28;92970;-63
2022/04/15 03:15:04;;;;;;;17.48;6.13;;;;;;;;;;4954132;28;92559;-71
2022/04/15 03:17:30;;;;;;;9.25;6.55;;;;;;;;;;4953040;28;94937;-73
2022/04/15 03:19:57;;;;;;;12.02;5.82;;;;;;;;;;4954267;28;94469;-72
2022/04/15 03:22:23;;;;;;;10.10;6.20;;;;;;;;;;4954429;28;92522;-74
2022/04/15 03:24:50;;;;;;;10.48;6.05;;;;;;;;;;4957443;28;94167;-72
2022/04/15 03:27:16;;;;;;;11.63;5.65;;;;;;;;;;4954725;28;92392;-73
2022/04/15 03:29:43;;;;;;;18.58;6.20;;;;;;;;;;4953829;28;92963;-72
2022/04/15 03:32:10;;;;;;;11.25;5.70;;;;;;;;;;4954397;28;93709;-72
2022/04/15 03:34:36;;;;;;;11.23;6.05;;;;;;;;;;4954942;28;91837;-72
2022/04/15 03:37:03;;;;;;;14.52;5.88;;;;;;;;;;4954643;28;93835;-72
2022/04/15 03:39:30;;;;;;;12.55;5.38;;;;;;;;;;4954228;28;93742;-73
2022/04/15 03:41:56;;;;;;;14.45;5.55;;;;;;;;;;4951122;28;94857;-71
2022/04/15 03:44:22;;;;;;;12.57;5.88;;;;;;;;;;4953359;28;94450;-71
2022/04/15 03:46:48;;;;;;;10.55;5.43;;;;;;;;;;4955894;28;93501;-72
2022/04/15 03:49:15;;;;;;;9.48;6.00;;;;;;;;;;4953956;28;94256;-72
2022/04/15 03:51:41;;;;;;;10.27;5.60;;;;;;;;;;4953787;28;93412;-72
2022/04/15 03:54:07;;;;;;;25.63;5.38;;;;;;;;;;4954394;28;92838;-73
2022/04/15 03:56:34;;;;;;;8.68;5.43;;;;;;;;;;4953778;28;93244;-72
2022/04/15 03:59:00;;;;;;;9.85;5.40;;;;;;;;;;4954762;28;92727;-72
2022/04/15 04:01:26;;;;;;;10.10;4.22;;;;;;;;;;4954358;28;92451;-73
2022/04/15 04:03:53;;;;;;;7.32;4.07;;;;;;;;;;4954468;28;94553;-72
2022/04/15 04:06:19;;;;;;;8.18;4.90;;;;;;;;;;4951828;28;97027;-72
2022/04/15 04:08:49;;;;;;;6.38;3.72;;;;;;;;;;4969797;28;93103;-72
2022/04/15 04:11:17;;;;;;;9.05;4.55;;;;;;;;;;4953211;28;94507;-72
2022/04/15 04:13:44;;;;;;;8.18;4.70;;;;;;;;;;4952485;28;92431;-72
2022/04/15 04:16:14;;;;;;;16.38;5.22;;;;;;;;;;4954012;28;92517;-72
2022/04/15 04:18:41;;;;;;;11.93;4.90;;;;;;;;;;4953998;28;93901;-73
2022/04/15 04:21:07;;;;;;;12.65;4.97;;;;;;;;;;4955666;28;92786;-73
2022/04/15 04:23:34;;;;;;;11.98;5.03;;;;;;;;;;4957162;28;93385;-72
2022/04/15 04:26:00;;;;;;;8.18;3.97;;;;;;;;;;4957002;28;93589;-72
2022/04/15 04:28:27;;;;;;;8.07;4.50;;;;;;;;;;4957162;28;92707;-72
2022/04/15 04:30:53;;;;;;;12.73;4.30;;;;;;;;;;4958157;28;94859;-72
2022/04/15 04:33:20;;;;;;;9.70;4.57;;;;;;;;;;4956642;28;92586;-72
2022/04/15 04:35:46;;;;;;;8.48;4.80;;;;;;;;;;4956828;28;92498;-73
2022/04/15 04:38:12;;;;;;;15.20;5.43;;;;;;;;;;4955499;28;93302;-72
2022/04/15 04:40:39;;;;;;;12.25;5.38;;;;;;;;;;4957142;28;92515;-72
2022/04/15 04:43:06;;;;;;;14.18;5.53;;;;;;;;;;4956414;28;93185;-72
2022/04/15 04:45:33;;;;;;;10.70;5.10;;;;;;;;;;4956345;28;93586;-72
2022/04/15 04:48:00;;;;;;;15.23;5.25;;;;;;;;;;4957692;28;91634;-71
2022/04/15 04:50:28;;;;;;;9.38;5.57;;;;;;;;;;4957177;28;92445;-72
2022/04/15 04:52:54;;;;;;;14.20;5.68;;;;;;;;;;4958992;28;93147;-72
2022/04/15 04:55:20;;;;;;;14.23;5.70;;;;;;;;;;4951208;28;95051;-72
2022/04/15 04:57:47;;;;;;;14.35;6.32;;;;;;;;;;4956121;28;93107;-73
2022/04/15 05:00:14;;;;;;;6.57;5.47;;;;;;;;;;4956367;28;92444;-73
2022/04/15 05:02:40;;;;;;;11.75;6.38;;;;;;;;;;4956495;28;94236;-72
2022/04/15 05:05:07;;;;;;;8.00;4.75;;;;;;;;;;4956383;28;93602;-72
2022/04/15 05:07:34;;;;;;;15.70;5.38;;;;;;;;;;4955508;28;92454;-72
2022/04/15 05:10:06;;;;;;;8.38;5.22;;;;;;;;;;4955743;28;93167;-72
2022/04/15 05:12:32;;;;;;;12.05;5.72;;;;;;;;;;4958758;28;92870;-72
2022/04/15 05:14:59;;;;;;;12.57;5.28;;;;;;;;;;4956226;28;92504;-72
2022/04/15 05:17:25;;;;;;;12.80;6.00;;;;;;;;;;4956109;28;93263;-72
2022/04/15 05:19:51;;;;;;;8.13;5.05;;;;;;;;;;4954482;28;94991;-72
2022/04/15 05:22:18;;;;;;;6.38;4.68;;;;;;;;;;4942496;28;95632;-72
2022/04/15 05:24:44;;;;;;;18.20;5.63;;;;;;;;;;4955646;28;93790;-72
2022/04/15 05:27:11;;;;;;;8.20;4.63;;;;;;;;;;4955704;28;92479;-72
2022/04/15 05:29:37;;;;;;;8.55;4.60;;;;;;;;;;4956137;28;92435;-72
2022/04/15 05:32:03;;;;;;;11.10;5.00;;;;;;;;;;4955035;28;94600;-72
2022/04/15 05:34:30;;;;;;;14.35;4.85;;;;;;;;;;4958462;28;92510;-72
2022/04/15 05:36:56;;;;;;;6.82;4.90;;;;;;;;;;4956152;28;92584;-72
2022/04/15 05:39:22;;;;;;;11.60;4.85;;;;;;;;;;4955776;28;92577;-72
2022/04/15 05:41:49;;;;;;;10.07;5.40;;;;;;;;;;4955130;28;92974;-72
2022/04/15 05:44:16;;;;;;;6.78;4.40;;;;;;;;;;4953720;28;95818;-72
2022/04/15 05:46:42;;;;;;;10.63;4.68;;;;;;;;;;4951281;28;92515;-72
2022/04/15 05:49:13;;;;;;;12.55;6.05;;;;;;;;;;4950287;28;93841;-73
2022/04/15 05:51:41;;;;;;;13.65;5.22;;;;;;;;;;4954899;28;93613;-72
2022/04/15 05:54:07;;;;;;;11.43;5.10;;;;;;;;;;4955409;28;92473;-72
2022/04/15 05:56:34;;;;;;;5.15;4.20;;;;;;;;;;4951492;28;93335;-71
2022/04/15 05:59:00;;;;;;;7.85;4.50;;;;;;;;;;4955811;28;92496;-70
2022/04/15 06:01:26;;;;;;;11.45;4.32;;;;;;;;;;4955543;28;93127;-69
2022/04/15 06:03:53;;;;;;;14.43;4.85;;;;;;;;;;4955012;28;94375;-71
2022/04/15 06:06:19;;;;;;;9.70;4.70;;;;;;;;;;4955686;28;92649;-72
2022/04/15 06:08:45;;;;;;;7.35;4.82;;;;;;;;;;4953428;28;95327;-71
2022/04/15 06:11:12;;;;;;;13.27;5.30;;;;;;;;;;4954635;28;93232;-71
2022/04/15 06:13:41;;;;;;;9.50;4.53;;;;;;;;;;4967623;28;92439;-72
2022/04/15 06:16:09;;;;;;;12.57;5.20;;;;;;;;;;4955828;28;93102;-70
2022/04/15 06:18:36;;;;;;;5.93;3.95;;;;;;;;;;4958500;28;93121;-71
2022/04/15 06:21:03;;;;;;;9.63;4.00;;;;;;;;;;4955912;28;92509;-72
2022/04/15 06:23:30;;;;;;;13.52;4.35;;;;;;;;;;4955598;28;94865;-72
2022/04/15 06:25:56;;;;;;;10.82;4.40;;;;;;;;;;4955432;28;92090;-72
2022/04/15 06:28:22;;;;;;;8.35;3.83;;;;;;;;;;4955584;28;93568;-72
2022/04/15 06:30:49;;;;;;;8.60;3.45;;;;;;;;;;4958779;28;93964;-71
2022/04/15 06:33:16;;;;;;;7.95;3.90;;;;;;;;;;4969692;28;95216;-70
2022/04/15 06:35:42;;;;;;;8.25;3.42;;;;;;;;;;4971506;28;95425;-71
2022/04/15 06:38:09;;;;;;;5.20;3.40;;;;;;;;;;4989805;28;93109;-69
2022/04/15 06:40:38;;;;;;;9.30;3.65;;;;;;;;;;4972683;28;92507;-70
2022/04/15 06:43:05;;;;;;;5.50;3.33;;;;;;;;;;4954544;28;93341;-72
2022/04/15 06:45:31;;;;;;;7.78;3.00;;;;;;;;;;4941017;28;92505;-72
2022/04/15 06:47:58;;;;;;;5.68;2.95;;;;;;;;;;4954250;28;93091;-72
2022/04/15 06:50:24;;;;;;;6.65;3.47;;;;;;;;;;4955486;28;91690;-72
2022/04/15 06:52:51;;;;;;;7.00;3.90;;;;;;;;;;4955084;28;92813;-73
2022/04/15 06:55:18;;;;;;;8.38;2.70;;;;;;;;;;4955362;28;92819;-71
2022/04/15 06:57:44;;;;;;;5.97;2.85;;;;;;;;;;4952955;28;95994;-71
2022/04/15 07:00:13;;;;;;;4.75;2.90;;;;;;;;;;4955047;28;92429;-73
2022/04/15 07:02:41;;;;;;;4.65;2.67;;;;;;;;;;4957218;28;93191;-73
2022/04/15 07:05:09;;;;;;;5.20;3.28;;;;;;;;;;4954653;28;92433;-73
2022/04/15 07:07:39;;;;;;;6.03;3.00;;;;;;;;;;4954311;28;93157;-73
2022/04/15 07:10:06;;;;;;;7.03;3.20;;;;;;;;;;4953663;28;93780;-73
2022/04/15 07:12:33;;;;;;;7.57;3.35;;;;;;;;;;4953828;28;92844;-72
2022/04/15 07:14:59;;;;;;;9.20;3.10;;;;;;;;;;4955344;28;92797;-72
2022/04/15 07:17:25;;;;;;;5.05;2.70;;;;;;;;;;4953912;28;93606;-73
2022/04/15 07:19:52;;;;;;;7.15;3.00;;;;;;;;;;4954547;28;92501;-73
2022/04/15 07:22:19;;;;;;;7.22;2.67;;;;;;;;;;4955394;28;94906;-71
2022/04/15 07:24:45;;;;;;;5.22;2.95;;;;;;;;;;4954933;28;92431;-71
2022/04/15 07:27:12;;;;;;;3.53;2.53;;;;;;;;;;4954708;28;93157;-72
2022/04/15 07:29:38;;;;;;;5.53;2.60;;;;;;;;;;4954219;28;93627;-71
2022/04/15 07:32:04;;;;;;;7.03;2.40;;;;;;;;;;4954323;28;92796;-72
2022/04/15 07:34:31;;;;;;;4.95;2.42;;;;;;;;;;4954318;28;93221;-73
2022/04/15 07:36:59;;;;;;;4.38;2.50;;;;;;;;;;4953813;28;93398;-72
2022/04/15 07:39:25;;;;;;;7.70;2.78;;;;;;;;;;4954681;28;91748;-71
2022/04/15 07:41:52;;;;;;;2.85;2.40;;;;;;;;;;4953477;28;92508;-70
2022/04/15 07:44:19;;;;;;;6.72;2.70;;;;;;;;;;4957265;28;94241;-69
2022/04/15 07:46:45;;;;;;;7.53;2.80;;;;;;;;;;4953162;28;94849;-70
2022/04/15 07:49:11;;;;;;;6.85;2.50;;;;;;;;;;4950411;28;93416;-71
2022/04/15 07:51:38;;;;;;;4.18;2.55;;;;;;;;;;4954539;28;93028;-70
2022/04/15 07:54:05;;;;;;;8.30;2.63;;;;;;;;;;4953985;28;92400;-70
2022/04/15 07:56:32;;;;;;;5.57;2.42;;;;;;;;;;4956574;28;94796;-70
2022/04/15 07:58:59;;;;;;;11.18;2.95;;;;;;;;;;4957528;28;92566;-69
2022/04/15 08:01:28;;;;;;;8.60;2.80;;;;;;;;;;4957446;28;92513;-71
2022/04/15 08:03:55;;;;;;;8.70;2.50;;;;;;;;;;4958209;28;93858;-71
2022/04/15 08:06:23;;;;;;;6.85;2.97;;;;;;;;;;4952882;28;94394;-71
2022/04/15 08:08:50;;;;;;;5.78;3.20;;;;;;;;;;4957316;28;93276;-71
2022/04/15 08:11:16;;;;;;;7.80;2.88;;;;;;;;;;4956374;28;94937;-70
2022/04/15 08:13:42;;;;;;;16.67;2.33;;;;;;;;;;4962260;28;95313;-71
2022/04/15 08:16:09;;;;;;;6.85;2.40;;;;;;;;;;4955284;28;94469;-71
2022/04/15 08:18:35;;;;;;;4.78;3.00;;;;;;;;;;4957330;28;92587;-72
2022/04/15 08:21:01;;;;;;;6.72;2.53;;;;;;;;;;4956785;28;94180;-71
2022/04/15 08:23:28;;;;;;;5.57;2.60;;;;;;;;;;4956510;28;93627;-72
2022/04/15 08:25:54;;;;;;;5.43;2.75;;;;;;;;;;4957358;28;92451;-72
2022/04/15 08:28:21;;;;;;;7.85;3.28;;;;;;;;;;4960607;28;93032;-70
2022/04/15 08:30:47;;;;;;;2.78;2.35;;;;;;;;;;4957158;28;92580;-71
2022/04/15 08:33:14;;;;;;;7.30;2.83;;;;;;;;;;4956969;28;92963;-72
2022/04/15 08:35:40;;;;;;;3.40;2.80;;;;;;;;;;4954382;28;95827;-72
2022/04/15 08:38:07;;;;;;;6.85;2.72;;;;;;;;;;4957009;28;92849;-70
2022/04/15 08:40:35;;;;;;;8.05;3.00;;;;;;;;;;4956439;28;92920;-72
2022/04/15 08:43:03;;;;;;;8.68;2.38;;;;;;;;;;4956860;28;93557;-72
2022/04/15 08:45:30;;;;;;;6.18;2.65;;;;;;;;;;4956844;28;92385;-73
2022/04/15 08:47:59;;;;;;;5.45;2.40;;;;;;;;;;4957085;28;92922;-72
2022/04/15 08:50:27;;;;;;;3.80;2.42;;;;;;;;;;4959433;28;94557;-73
2022/04/15 08:52:54;;;;;;;3.85;2.00;;;;;;;;;;4957369;28;94486;-72
2022/04/15 08:55:21;;;;;;;6.30;2.65;;;;;;;;;;4956444;28;93203;-72
2022/04/15 08:57:51;;;;;;;4.55;2.63;;;;;;;;;;4971311;28;93081;-72
2022/04/15 09:00:19;;;;;;;5.43;2.70;;;;;;;;;;4954265;28;94909;-72
2022/04/15 09:02:45;;;;;;;6.45;3.03;;;;;;;;;;4956420;28;94475;-72
2022/04/15 09:05:12;;;;;;;4.65;2.45;;;;;;;;;;4955601;28;92556;-72
2022/04/15 09:07:39;;;;;;;4.75;2.63;;;;;;;;;;4956383;28;94292;-71
2022/04/15 09:10:07;;;;;;;3.33;2.60;;;;;;;;;;4955246;28;93442;-72
2022/04/15 09:12:35;;;;;;;6.55;3.22;;;;;;;;;;4952221;28;92447;-72
2022/04/15 09:15:08;;;;;;;8.40;2.85;;;;;;;;;;4953529;28;93382;-70
2022/04/15 09:17:47;;;;;;;5.82;2.80;;;;;;;;;;4957991;28;93222;-70
2022/04/15 09:20:13;;;;;;;6.32;3.22;;;;;;;;;;4975455;28;92497;-72
2022/04/15 09:22:39;;;;;;;5.05;2.33;;;;;;;;;;4975483;28;94453;-72
2022/04/15 09:25:06;;;;;;;6.60;2.88;;;;;;;;;;4960152;28;94898;-73
2022/04/15 09:27:34;;;;;;;5.40;2.35;;;;;;;;;;4954096;28;96671;-71
2022/04/15 09:30:01;;;;;;;4.10;2.50;;;;;;;;;;4949459;28;95200;-69
2022/04/15 09:32:28;;;;;;;6.68;2.90;;;;;;;;;;4950143;28;92546;-72
2022/04/15 09:34:59;;;;;;;3.03;2.50;;;;;;;;;;4939934;28;94553;-70
2022/04/15 09:37:26;;;;;;;6.00;3.10;;;;;;;;;;4955400;28;92483;-71
2022/04/15 09:40:27;;;;;;;6.90;2.83;;;;;;;;;;4958300;28;93014;-70
2022/04/15 09:42:54;;;;;;;4.70;3.15;;;;;;;;;;4963696;28;93421;-68
2022/04/15 09:45:22;;;;;;;5.15;2.75;;;;;;;;;;4950846;28;93219;-70
2022/04/15 09:47:56;;;;;;;7.13;2.80;;;;;;;;;;4955128;28;96616;-70
2022/04/15 09:50:27;;;;;;;5.55;2.47;;;;;;;;;;4955584;28;96700;-70
2022/04/15 09:52:54;;;;;;;7.28;2.90;;;;;;;;;;4954331;28;92469;-70
2022/04/15 09:55:21;;;;;;;6.53;3.00;;;;;;;;;;4943226;28;93984;-69
2022/04/15 09:57:48;;;;;;;8.93;3.50;;;;;;;;;;4954547;28;92878;-71
2022/04/15 10:00:18;;;;;;;5.90;3.47;;;;;;;;;;4954264;28;94086;-71
2022/04/15 10:02:45;;;;;;;8.13;3.45;;;;;;;;;;4937546;28;94498;-70
2022/04/15 10:05:12;;;;;;;6.25;3.30;;;;;;;;;;4955419;28;92563;-70
2022/04/15 10:07:40;;;;;;;4.07;3.10;;;;;;;;;;4955549;28;93384;-70
2022/04/15 10:10:07;;;;;;;9.20;3.90;;;;;;;;;;4954042;28;94573;-70
2022/04/15 10:12:39;;;;;;;11.02;3.50;;;;;;;;;;4952946;28;92485;-69
2022/04/15 10:15:06;;;;;;;5.43;3.50;;;;;;;;;;4953826;28;94967;-68
2022/04/15 10:17:33;;;;;;;9.45;3.47;;;;;;;;;;4957851;28;93467;-67
2022/04/15 10:20:00;;;;;;;7.43;3.67;;;;;;;;;;4953669;28;93191;-67
2022/04/15 10:22:26;;;;;;;7.05;3.65;;;;;;;;;;4954445;28;93410;-67
2022/04/15 10:24:52;;;;;;;13.00;4.18;;;;;;;;;;4954261;28;93026;-68
2022/04/15 10:27:30;;;;;;;6.95;4.13;;;;;;;;;;4955422;28;93305;-69
2022/04/15 10:30:14;;;;;;;9.65;4.13;;;;;;;;;;4954783;28;93552;-69
2022/04/15 10:32:47;;;;;;;8.18;3.20;;;;;;;;;;4955615;28;91767;-68
2022/04/15 10:35:21;;;;;;;7.13;3.55;;;;;;;;;;4953622;28;93979;-69
2022/04/15 10:37:55;;;;;;;6.05;3.40;;;;;;;;;;4950920;28;93287;-68
2022/04/15 10:40:26;;;;;;;8.73;3.13;;;;;;;;;;4955766;28;94931;-69
2022/04/15 10:42:52;;;;;;;5.43;3.28;;;;;;;;;;4954417;28;92543;-69
2022/04/15 10:45:25;;;;;;;5.05;3.15;;;;;;;;;;4952198;28;93982;-69
2022/04/15 10:47:58;;;;;;;7.38;3.47;;;;;;;;;;4955597;28;93010;-68
2022/04/15 10:50:26;;;;;;;4.20;2.92;;;;;;;;;;4950612;28;93666;-69
2022/04/15 10:52:52;;;;;;;6.55;3.35;;;;;;;;;;4953096;28;92474;-68
2022/04/15 10:55:18;;;;;;;6.07;3.20;;;;;;;;;;4953873;28;93392;-67
2022/04/15 10:57:46;;;;;;;6.35;3.25;;;;;;;;;;4954217;28;92719;-68
2022/04/15 11:03:19;;;;;;;5.13;3.50;;;;;;;;;;4957191;28;92969;-68
2022/04/15 11:05:46;;;;;;;6.75;3.35;;;;;;;;;;4952108;28;94882;-68
2022/04/15 11:08:12;;;;;;;5.10;4.07;;;;;;;;;;4953421;28;94226;-67
2022/04/15 11:10:45;;;;;;;6.78;3.95;;;;;;;;;;4960001;28;93430;-67
2022/04/15 11:13:32;;;;;;;8.23;3.72;;;;;;;;;;4962269;28;93363;-68
2022/04/15 11:16:11;;;;;;;8.02;4.03;;;;;;;;;;4955175;28;94248;-68
2022/04/15 11:18:48;;;;;;;7.45;4.28;;;;;;;;;;4956748;28;93422;-68
2022/04/15 11:21:22;;;;;;;6.40;3.95;;;;;;;;;;4952689;28;92966;-68
2022/04/15 11:23:51;;;;;;;5.30;3.95;;;;;;;;;;4968113;28;94066;-68
2022/04/15 11:26:19;;;;;;;5.72;3.40;;;;;;;;;;4957073;28;92457;-67
2022/04/15 11:28:46;;;;;;;5.57;3.67;;;;;;;;;;4953147;28;94348;-68
2022/04/15 11:31:38;;;;;;;4.35;3.65;;;;;;;;;;4953560;28;95678;-68
2022/04/15 11:34:06;;;;;;;5.88;3.58;;;;;;;;;;4955139;28;92624;-68
2022/04/15 11:36:33;;;;;;;6.60;3.90;;;;;;;;;;4957596;28;94338;-68
2022/04/15 11:39:00;;;;;;;6.80;3.80;;;;;;;;;;4956259;28;93636;-68
2022/04/15 11:41:27;;;;;;;5.90;3.72;;;;;;;;;;4957825;28;92549;-68
2022/04/15 11:43:55;;;;;;;6.18;3.30;;;;;;;;;;4956779;28;92437;-68
2022/04/15 11:46:21;;;;;;;4.68;3.90;;;;;;;;;;4960152;28;93493;-68
2022/04/15 11:48:50;;;;;;;6.60;4.05;;;;;;;;;;4957644;28;93144;-67
2022/04/15 11:51:22;;;;;;;4.97;3.53;;;;;;;;;;4955981;28;93272;-68
2022/04/15 11:53:49;;;;;;;4.47;3.55;;;;;;;;;;4956009;28;92509;-68
2022/04/15 11:56:16;;;;;;;13.77;4.47;;;;;;;;;;4949560;28;94958;-68
2022/04/15 11:58:43;;;;;;;7.13;4.43;;;;;;;;;;4954963;28;93453;-67
2022/04/15 12:01:09;;;;;;;6.30;3.80;;;;;;;;;;4966501;28;92650;-67
2022/04/15 12:03:39;;;;;;;6.18;3.90;;;;;;;;;;4975095;28;93606;-68
2022/04/15 12:06:10;;;;;;;7.00;4.25;;;;;;;;;;4976231;28;95630;-67
2022/04/15 12:08:36;;;;;;;7.45;4.15;;;;;;;;;;4979666;28;92565;-67
2022/04/15 12:11:03;;;;;;;7.38;4.30;;;;;;;;;;4972850;28;94528;-67
2022/04/15 12:13:29;;;;;;;7.15;4.40;;;;;;;;;;4977162;28;91750;-68
2022/04/15 12:15:56;;;;;;;6.28;4.45;;;;;;;;;;4968157;28;93031;-66
2022/04/15 12:18:22;;;;;;;10.10;4.60;;;;;;;;;;4957058;28;93211;-66
2022/04/15 12:20:48;;;;;;;7.82;4.60;;;;;;;;;;4956755;28;94918;-68
2022/04/15 12:23:15;;;;;;;6.70;4.57;;;;;;;;;;4950179;28;95187;-66
2022/04/15 12:31:28;;;;;;;6.00;4.05;;;;;;;;;;4958050;28;93195;-69
2022/04/15 12:33:56;;;;;;;6.80;4.57;;;;;;;;;;4956729;28;92484;-68
2022/04/15 12:36:22;;;;;;;6.63;4.78;;;;;;;;;;4963249;28;93204;-68
2022/04/15 12:38:58;;;;;;;6.22;4.95;;;;;;;;;;4956990;28;92561;-68
2022/04/15 12:41:35;;;;;;;12.55;5.50;;;;;;;;;;4955889;28;92455;-69
2022/04/15 12:44:11;;;;;;;8.93;4.95;;;;;;;;;;4956419;28;94002;-68
2022/04/15 12:46:38;;;;;;;12.05;5.85;;;;;;;;;;4949844;28;96014;-68
2022/04/15 12:49:04;;;;;;;14.60;6.10;;;;;;;;;;4960222;28;92457;-69
2022/04/15 12:51:37;;;;;;;5.65;5.13;;;;;;;;;;4973578;28;93037;-67
2022/04/15 12:54:06;;;;;;;12.40;5.90;;;;;;;;;;4978276;28;93433;-68
2022/04/15 12:56:32;;;;;;;6.30;5.22;;;;;;;;;;4972601;28;93332;-68
2022/04/15 12:58:58;;;;;;;16.45;5.78;;;;;;;;;;4955157;28;93334;-68
2022/04/15 13:01:25;;;;;;;14.88;6.18;;;;;;;;;;4956063;28;92946;-68
2022/04/15 13:03:52;;;;;;;13.10;6.45;;;;;;;;;;4957178;28;92235;-68
2022/04/15 13:06:19;;;;;;;12.20;7.10;;;;;;;;;;4956405;28;93466;-68
2022/04/15 13:08:45;;;;;;;10.65;7.60;;;;;;;;;;4955505;28;92517;-68
2022/04/15 13:11:11;;;;;;;11.43;7.68;;;;;;;;;;4954497;28;94864;-66
2022/04/15 13:13:37;;;;;;;9.40;7.47;;;;;;;;;;4956435;28;94483;-68
2022/04/15 13:16:04;;;;;;;14.02;6.88;;;;;;;;;;4959385;28;92655;-67
2022/04/15 13:18:31;;;;;;;13.90;7.72;;;;;;;;;;4955514;28;94313;-67
2022/04/15 13:20:57;;;;;;;12.90;7.63;;;;;;;;;;4955958;28;92767;-68
2022/04/15 13:23:24;;;;;;;13.20;8.60;;;;;;;;;;4955559;28;93809;-67
2022/04/15 13:25:52;;;;;;;25.58;10.00;;;;;;;;;;4956170;28;94399;-67
2022/04/15 13:28:18;;;;;;;15.45;9.73;;;;;;;;;;4955939;28;91701;-67
2022/04/15 13:30:45;;;;;;;15.93;10.00;;;;;;;;;;4954642;28;93814;-67
2022/04/15 13:33:12;;;;;;;17.77;10.00;;;;;;;;;;4954803;28;93539;-66
2022/04/15 13:35:38;;;;;;;14.57;9.98;;;;;;;;;;4956743;28;94894;-67
2022/04/15 13:38:04;;;;;;;16.52;10.32;;;;;;;;;;4955259;28;94256;-67
2022/04/15 13:40:31;;;;;;;16.15;10.52;;;;;;;;;;4954826;28;92467;-67
2022/04/15 13:42:57;;;;;;;23.48;11.13;;;;;;;;;;4954912;28;92835;-66
2022/04/15 13:45:23;;;;;;;16.70;10.93;;;;;;;;;;4954365;28;93484;-67
2022/04/15 13:47:50;;;;;;;20.50;10.73;;;;;;;;;;4953237;28;92780;-68
2022/04/15 13:50:16;;;;;;;18.50;10.77;;;;;;;;;;4954640;28;94622;-69
2022/04/15 13:58:13;;;;;;;19.38;10.60;;;;;;;;;;4957699;28;93163;-67
2022/04/15 14:00:40;;;;;;;13.50;10.15;;;;;;;;;;4952899;28;96810;-68
2022/04/15 14:03:06;;;;;;;16.25;9.77;;;;;;;;;;4954686;28;96373;-67
2022/04/15 14:05:33;;;;;;;22.02;9.60;;;;;;;;;;4955266;28;92486;-65
2022/04/15 14:07:59;;;;;;;12.98;9.02;;;;;;;;;;4954929;28;92443;-66
2022/04/15 14:10:25;;;;;;;14.00;8.55;;;;;;;;;;4955547;28;93910;-66
2022/04/15 14:12:51;;;;;;;11.93;8.13;;;;;;;;;;4953901;28;93669;-66
2022/04/15 14:15:23;;;;;;;18.08;8.50;;;;;;;;;;4954068;28;93052;-66
2022/04/15 14:17:50;;;;;;;14.48;8.30;;;;;;;;;;4956006;28;93512;-66
2022/04/15 14:20:16;;;;;;;13.35;8.10;;;;;;;;;;4958268;28;94058;-65
2022/04/15 14:22:43;;;;;;;15.25;8.35;;;;;;;;;;4954187;28;93200;-67
2022/04/15 14:25:09;;;;;;;11.88;6.88;;;;;;;;;;4952451;28;96273;-68
2022/04/15 14:27:35;;;;;;;13.30;7.57;;;;;;;;;;4955393;28;92461;-67
2022/04/15 14:30:02;;;;;;;13.55;7.57;;;;;;;;;;4954623;28;93245;-68
2022/04/15 14:32:28;;;;;;;11.90;7.32;;;;;;;;;;4954900;28;93278;-68
2022/04/15 14:34:54;;;;;;;16.60;6.65;;;;;;;;;;4954143;28;92469;-67
2022/04/15 14:37:21;;;;;;;9.15;6.25;;;;;;;;;;4953707;28;92856;-67
2022/04/15 14:39:48;;;;;;;11.23;6.10;;;;;;;;;;4954878;28;93114;-66
2022/04/15 14:42:15;;;;;;;8.30;5.82;;;;;;;;;;4957890;28;91803;-67
2022/04/15 14:44:41;;;;;;;8.48;5.57;;;;;;;;;;4954156;28;93424;-66
2022/04/15 14:47:07;;;;;;;9.52;6.15;;;;;;;;;;4955752;28;92552;-66
2022/04/15 14:49:35;;;;;;;6.95;5.50;;;;;;;;;;4952841;28;95140;-65